Aplicació Alertes

Dades de l'estació automàtica Alcarràs

?
?
Resum diari 20:30 TU
Dades diàries de l'estació meteorològica
Temperatura mitjana 2.5 °C
Temperatura màxima 15.4 °C 14:37 TU
Temperatura mínima -4.5 °C 6:47 TU
Humitat relativa mitjana 84%
Precipitació acumulada 0.0 mm
Ratxa màxima del vent (2 m) 8.3 km/h - 268º 12:53 TU

El tram horari està expressat en Temps Universal (TU). Cal sumar una hora en horari d'hivern i dues en horari d'estiu per passar a l'hora oficial.

Alcarràs

Metadades estació meteorol´gica
Municipi Alcarràs
Comarca Segrià
Altitud 122 m
Data alta 31.07.2013
Estat actual Operativa
Dades de període
Període
TU
TM
°C
TX
°C
TN
°C
HRM
%
PPT
mm
VVM (2 m)
km/h
DVM (2 m)
graus
VVX (2 m)
km/h
00:00 - 00:30 -2.5 -2.3 -2.7 97 0.0 0.0 0 0.0
00:30 - 01:00 -2.7 -2.5 -2.9 97 0.0 0.0 0 0.0
01:00 - 01:30 -2.9 -2.7 -3.1 97 0.0 0.0 0 0.0
01:30 - 02:00 -3.1 -2.9 -3.2 97 0.0 0.0 0 0.0
02:00 - 02:30 -3.3 -3.1 -3.5 96 0.0 0.0 0 0.0
02:30 - 03:00 -3.3 -3.1 -3.5 96 0.0 0.0 0 0.0
03:00 - 03:30 -3.4 -3.1 -3.5 96 0.0 0.0 0 0.0
03:30 - 04:00 -3.5 -3.3 -3.9 97 0.0 0.0 0 0.0
04:00 - 04:30 -3.8 -3.6 -3.9 96 0.0 0.0 0 0.0
04:30 - 05:00 -3.6 -3.4 -3.8 97 0.0 0.0 0 0.0
05:00 - 05:30 -3.6 -3.4 -3.7 97 0.0 0.0 0 0.0
05:30 - 06:00 -3.9 -3.4 -4.2 98 0.0 0.0 0 0.0
06:00 - 06:30 -4.2 -3.9 -4.4 97 0.0 0.0 0 0.0
06:30 - 07:00 -4.2 -4.0 -4.5 97 0.0 0.0 0 0.0
07:00 - 07:30 -4.0 -3.8 -4.3 97 0.0 0.0 0 0.0
07:30 - 08:00 -3.3 -2.5 -3.8 96 0.0 0.0 0 0.0
08:00 - 08:30 -1.6 -0.8 -2.4 97 0.0 0.0 0 0.0
08:30 - 09:00 0.0 0.8 -0.8 95 0.0 0.0 235 0.7
09:00 - 09:30 1.4 2.2 0.9 89 0.0 0.0 246 1.4
09:30 - 10:00 3.7 5.2 2.2 82 0.0 0.0 204 1.4
10:00 - 10:30 5.0 5.9 4.5 77 0.0 0.7 263 4.3
10:30 - 11:00 6.3 7.3 5.7 73 0.0 1.4 253 5.4
11:00 - 11:30 7.9 8.7 7.0 69 0.0 1.1 241 4.7
11:30 - 12:00 9.0 10.2 8.5 65 0.0 1.4 194 6.5
12:00 - 12:30 10.2 10.6 9.8 61 0.0 1.8 205 5.8
12:30 - 13:00 11.3 12.1 10.2 57 0.0 1.8 258 8.3
13:00 - 13:30 12.6 13.2 12.0 53 0.0 1.4 239 5.4
13:30 - 14:00 13.4 14.0 12.7 51 0.0 0.7 335 5.4
14:00 - 14:30 13.7 14.6 13.2 50 0.0 1.1 18 5.4
14:30 - 15:00 14.5 15.4 14.0 48 0.0 0.4 193 3.6
15:00 - 15:30 14.7 15.4 13.7 48 0.0 0.0 292 2.5
15:30 - 16:00 11.4 13.5 10.1 59 0.0 0.0 0 0.0
16:00 - 16:30 8.7 10.0 7.4 76 0.0 0.0 0 0.0
16:30 - 17:00 6.3 7.4 5.2 84 0.0 0.0 0 0.0
17:00 - 17:30 4.6 5.7 3.8 90 0.0 0.0 57 1.1
17:30 - 18:00 3.3 4.1 2.3 92 0.0 0.0 0 0.0
18:00 - 18:30 2.4 2.7 2.0 94 0.0 0.0 0 0.0
18:30 - 19:00 1.4 2.1 0.8 95 0.0 0.0 0 0.0
19:00 - 19:30 0.7 1.1 0.0 97 0.0 0.0 0 0.0
19:30 - 20:00 0.1 0.5 -0.2 98 0.0 0.0 0 0.0
20:00 - 20:30 -0.4 0.1 -0.8 98 0.0 0.0 0 0.0
20:30 - 21:00 -0.7 0.0 -1.2 98 0.0 0.0 0 0.0

Les dades en taronja només han passat un control de qualitat automàtic. Resta pendent la seva validació definitiva.